KG-0007 weather

Tokmok Airport
Tokmok, Chuy Region, Kyrgyzstan

Public forecast

Using degrees Celsius for public forecast. Weather courtesy of forecast.io.

Closest aviation weather report (METAR) to Tokmok Airport

Closest report is Manas International Airport, 40.2 nm (74.5 km) WNW. Retrieved 2020/02/27 02:00 UTC (35 minutes ago):

UCFM 270200Z 29006MPS 4600 -SNRA BR OVC004 00/M00 Q1022 R26/2///95 NOSIG

Closest aviation forecast (TAF) to Tokmok Airport

Closest forecast is Manas International Airport, 40.2 nm (74.5 km) WNW. Retrieved 2020-02-27 00:00 UTC (3 hours ago):

TAF UCFM 262247Z 2700/2724 30003G08MPS 3000 BR BKN005 OVC030CB TEMPO 2700/2706 32010G15MPS 1000 SHRA BKN003 OVC015CB BECMG 2706/2707 1500 BR FU TEMPO 2706/2712 0600 SHRASN FZFG BKN002 OVC015CB